sensor_id;sensor_type;location;lat;lon;timestamp;P1;durP1;ratioP1;P2;durP2;ratioP2
69053;SDS011;56125;52.242;4.756;2023-01-29T00:00:44;3.03;;;2.00;;
69053;SDS011;56125;52.242;4.756;2023-01-29T00:05:45;3.33;;;2.22;;
69053;SDS011;56125;52.242;4.756;2023-01-29T00:10:46;6.53;;;2.70;;
69053;SDS011;56125;52.242;4.756;2023-01-29T00:15:54;4.35;;;2.35;;
69053;SDS011;56125;52.242;4.756;2023-01-29T00:20:56;3.43;;;2.47;;
69053;SDS011;56125;52.242;4.756;2023-01-29T00:25:58;3.15;;;2.25;;
69053;SDS011;56125;52.242;4.756;2023-01-29T00:31:06;4.50;;;2.30;;
69053;SDS011;56125;52.242;4.756;2023-01-29T00:36:12;3.13;;;2.60;;
69053;SDS011;56125;52.242;4.756;2023-01-29T00:41:16;4.10;;;2.30;;
69053;SDS011;56125;52.242;4.756;2023-01-29T00:46:35;3.28;;;2.35;;
69053;SDS011;56125;52.242;4.756;2023-01-29T00:51:37;3.00;;;2.40;;
69053;SDS011;56125;52.242;4.756;2023-01-29T00:56:38;4.38;;;2.65;;
69053;SDS011;56125;52.242;4.756;2023-01-29T01:01:39;5.23;;;2.90;;
69053;SDS011;56125;52.242;4.756;2023-01-29T01:06:59;4.82;;;2.78;;
69053;SDS011;56125;52.242;4.756;2023-01-29T01:12:00;4.50;;;2.70;;
69053;SDS011;56125;52.242;4.756;2023-01-29T01:17:01;5.05;;;2.83;;
69053;SDS011;56125;52.242;4.756;2023-01-29T01:22:02;2.80;;;2.17;;
69053;SDS011;56125;52.242;4.756;2023-01-29T01:27:04;4.25;;;2.80;;
69053;SDS011;56125;52.242;4.756;2023-01-29T01:32:06;3.70;;;2.27;;
69053;SDS011;56125;52.242;4.756;2023-01-29T01:37:07;3.40;;;2.70;;
69053;SDS011;56125;52.242;4.756;2023-01-29T01:42:10;3.97;;;2.53;;
69053;SDS011;56125;52.242;4.756;2023-01-29T01:47:12;4.18;;;2.28;;
69053;SDS011;56125;52.242;4.756;2023-01-29T01:52:14;3.30;;;2.20;;
69053;SDS011;56125;52.242;4.756;2023-01-29T01:57:19;3.42;;;2.28;;
69053;SDS011;56125;52.242;4.756;2023-01-29T02:02:24;2.53;;;2.07;;
69053;SDS011;56125;52.242;4.756;2023-01-29T02:07:45;4.55;;;2.72;;
69053;SDS011;56125;52.242;4.756;2023-01-29T02:13:07;4.67;;;2.33;;
69053;SDS011;56125;52.242;4.756;2023-01-29T02:18:09;3.42;;;2.55;;
69053;SDS011;56125;52.242;4.756;2023-01-29T02:23:15;4.63;;;3.00;;
69053;SDS011;56125;52.242;4.756;2023-01-29T02:34:31;3.17;;;2.30;;
69053;SDS011;56125;52.242;4.756;2023-01-29T02:40:04;4.05;;;3.00;;
69053;SDS011;56125;52.242;4.756;2023-01-29T02:45:14;4.00;;;2.87;;
69053;SDS011;56125;52.242;4.756;2023-01-29T02:56:02;4.27;;;2.57;;
69053;SDS011;56125;52.242;4.756;2023-01-29T03:01:25;4.05;;;2.60;;
69053;SDS011;56125;52.242;4.756;2023-01-29T03:06:44;5.10;;;2.77;;
69053;SDS011;56125;52.242;4.756;2023-01-29T03:11:56;4.20;;;2.80;;
69053;SDS011;56125;52.242;4.756;2023-01-29T03:17:19;3.20;;;2.50;;
69053;SDS011;56125;52.242;4.756;2023-01-29T03:22:26;4.38;;;2.60;;
69053;SDS011;56125;52.242;4.756;2023-01-29T03:27:38;3.10;;;2.40;;
69053;SDS011;56125;52.242;4.756;2023-01-29T03:33:03;3.72;;;2.63;;
69053;SDS011;56125;52.242;4.756;2023-01-29T03:38:08;3.43;;;2.63;;
69053;SDS011;56125;52.242;4.756;2023-01-29T03:43:17;3.38;;;2.47;;
69053;SDS011;56125;52.242;4.756;2023-01-29T03:48:34;5.80;;;2.67;;
69053;SDS011;56125;52.242;4.756;2023-01-29T03:58:57;4.23;;;2.90;;
69053;SDS011;56125;52.242;4.756;2023-01-29T04:04:06;3.63;;;2.85;;
69053;SDS011;56125;52.242;4.756;2023-01-29T04:09:32;5.50;;;2.83;;
69053;SDS011;56125;52.242;4.756;2023-01-29T04:14:37;4.18;;;2.78;;
69053;SDS011;56125;52.242;4.756;2023-01-29T04:19:38;4.37;;;2.70;;
69053;SDS011;56125;52.242;4.756;2023-01-29T04:24:40;3.85;;;2.70;;
69053;SDS011;56125;52.242;4.756;2023-01-29T04:46:09;3.25;;;2.60;;
69053;SDS011;56125;52.242;4.756;2023-01-29T04:51:22;4.07;;;2.67;;
69053;SDS011;56125;52.242;4.756;2023-01-29T05:01:50;5.00;;;3.00;;
69053;SDS011;56125;52.242;4.756;2023-01-29T05:06:52;3.72;;;2.58;;
69053;SDS011;56125;52.242;4.756;2023-01-29T05:11:55;3.93;;;2.40;;
69053;SDS011;56125;52.242;4.756;2023-01-29T05:16:56;3.10;;;2.50;;
69053;SDS011;56125;52.242;4.756;2023-01-29T05:22:01;5.23;;;2.67;;
69053;SDS011;56125;52.242;4.756;2023-01-29T05:27:04;4.15;;;2.50;;
69053;SDS011;56125;52.242;4.756;2023-01-29T05:32:25;3.77;;;2.90;;
69053;SDS011;56125;52.242;4.756;2023-01-29T05:37:26;4.07;;;2.60;;
69053;SDS011;56125;52.242;4.756;2023-01-29T05:42:27;3.93;;;2.63;;
69053;SDS011;56125;52.242;4.756;2023-01-29T05:47:28;4.38;;;2.70;;
69053;SDS011;56125;52.242;4.756;2023-01-29T05:52:29;4.03;;;2.70;;
69053;SDS011;56125;52.242;4.756;2023-01-29T05:57:30;3.00;;;2.30;;
69053;SDS011;56125;52.242;4.756;2023-01-29T06:02:31;5.17;;;2.80;;
69053;SDS011;56125;52.242;4.756;2023-01-29T06:07:32;3.38;;;2.72;;
69053;SDS011;56125;52.242;4.756;2023-01-29T06:12:33;3.70;;;2.17;;
69053;SDS011;56125;52.242;4.756;2023-01-29T06:17:34;4.90;;;3.00;;
69053;SDS011;56125;52.242;4.756;2023-01-29T06:22:35;2.83;;;2.30;;
69053;SDS011;56125;52.242;4.756;2023-01-29T06:27:36;3.03;;;2.15;;
69053;SDS011;56125;52.242;4.756;2023-01-29T06:32:37;3.93;;;2.50;;
69053;SDS011;56125;52.242;4.756;2023-01-29T06:37:38;3.88;;;2.30;;
69053;SDS011;56125;52.242;4.756;2023-01-29T06:42:39;4.10;;;2.40;;
69053;SDS011;56125;52.242;4.756;2023-01-29T06:47:40;2.90;;;2.38;;
69053;SDS011;56125;52.242;4.756;2023-01-29T06:52:41;3.53;;;2.20;;
69053;SDS011;56125;52.242;4.756;2023-01-29T06:57:42;3.13;;;2.20;;
69053;SDS011;56125;52.242;4.756;2023-01-29T07:02:43;4.30;;;2.10;;
69053;SDS011;56125;52.242;4.756;2023-01-29T07:07:44;2.78;;;2.40;;
69053;SDS011;56125;52.242;4.756;2023-01-29T07:12:45;3.13;;;2.07;;
69053;SDS011;56125;52.242;4.756;2023-01-29T07:17:59;4.07;;;3.10;;
69053;SDS011;56125;52.242;4.756;2023-01-29T07:23:01;5.47;;;2.70;;
69053;SDS011;56125;52.242;4.756;2023-01-29T07:28:03;3.95;;;2.53;;
69053;SDS011;56125;52.242;4.756;2023-01-29T07:33:05;3.37;;;2.30;;
69053;SDS011;56125;52.242;4.756;2023-01-29T07:38:08;3.75;;;2.63;;
69053;SDS011;56125;52.242;4.756;2023-01-29T07:43:10;3.60;;;2.23;;
69053;SDS011;56125;52.242;4.756;2023-01-29T07:48:11;3.05;;;2.38;;
69053;SDS011;56125;52.242;4.756;2023-01-29T07:53:13;4.03;;;2.47;;
69053;SDS011;56125;52.242;4.756;2023-01-29T07:58:14;4.20;;;2.42;;
69053;SDS011;56125;52.242;4.756;2023-01-29T08:03:16;4.27;;;2.50;;
69053;SDS011;56125;52.242;4.756;2023-01-29T08:08:19;4.55;;;2.38;;
69053;SDS011;56125;52.242;4.756;2023-01-29T08:13:20;3.40;;;2.53;;
69053;SDS011;56125;52.242;4.756;2023-01-29T08:18:21;4.63;;;2.83;;
69053;SDS011;56125;52.242;4.756;2023-01-29T08:23:22;5.20;;;3.17;;
69053;SDS011;56125;52.242;4.756;2023-01-29T08:28:23;4.25;;;2.88;;
69053;SDS011;56125;52.242;4.756;2023-01-29T08:33:24;3.83;;;2.77;;
69053;SDS011;56125;52.242;4.756;2023-01-29T08:38:28;5.22;;;3.13;;
69053;SDS011;56125;52.242;4.756;2023-01-29T08:43:29;4.50;;;3.30;;
69053;SDS011;56125;52.242;4.756;2023-01-29T08:48:30;4.88;;;3.60;;
69053;SDS011;56125;52.242;4.756;2023-01-29T08:53:31;5.33;;;3.50;;
69053;SDS011;56125;52.242;4.756;2023-01-29T08:58:32;5.75;;;3.88;;
69053;SDS011;56125;52.242;4.756;2023-01-29T09:03:33;4.63;;;3.40;;
69053;SDS011;56125;52.242;4.756;2023-01-29T09:08:35;5.07;;;3.28;;
69053;SDS011;56125;52.242;4.756;2023-01-29T09:13:36;5.03;;;3.17;;
69053;SDS011;56125;52.242;4.756;2023-01-29T09:18:37;4.18;;;2.92;;
69053;SDS011;56125;52.242;4.756;2023-01-29T09:23:38;4.00;;;3.07;;
69053;SDS011;56125;52.242;4.756;2023-01-29T09:28:39;7.55;;;4.10;;
69053;SDS011;56125;52.242;4.756;2023-01-29T09:33:40;7.27;;;3.40;;
69053;SDS011;56125;52.242;4.756;2023-01-29T09:38:41;5.75;;;3.70;;
69053;SDS011;56125;52.242;4.756;2023-01-29T09:43:45;6.57;;;3.40;;
69053;SDS011;56125;52.242;4.756;2023-01-29T09:48:56;5.10;;;3.22;;
69053;SDS011;56125;52.242;4.756;2023-01-29T09:54:41;6.53;;;3.73;;
69053;SDS011;56125;52.242;4.756;2023-01-29T09:59:39;5.32;;;3.13;;
69053;SDS011;56125;52.242;4.756;2023-01-29T10:10:22;5.18;;;2.95;;
69053;SDS011;56125;52.242;4.756;2023-01-29T10:15:46;4.90;;;3.63;;
69053;SDS011;56125;52.242;4.756;2023-01-29T10:21:00;5.90;;;3.55;;
69053;SDS011;56125;52.242;4.756;2023-01-29T10:26:11;7.63;;;3.50;;
69053;SDS011;56125;52.242;4.756;2023-01-29T10:31:17;5.82;;;3.28;;
69053;SDS011;56125;52.242;4.756;2023-01-29T10:36:41;4.13;;;3.27;;
69053;SDS011;56125;52.242;4.756;2023-01-29T10:47:06;5.13;;;3.10;;
69053;SDS011;56125;52.242;4.756;2023-01-29T10:57:55;4.73;;;3.20;;
69053;SDS011;56125;52.242;4.756;2023-01-29T11:03:20;6.07;;;3.55;;
69053;SDS011;56125;52.242;4.756;2023-01-29T11:08:25;5.90;;;3.67;;
69053;SDS011;56125;52.242;4.756;2023-01-29T11:13:38;4.47;;;3.20;;
69053;SDS011;56125;52.242;4.756;2023-01-29T11:18:50;4.97;;;3.87;;
69053;SDS011;56125;52.242;4.756;2023-01-29T11:24:11;4.75;;;3.35;;
69053;SDS011;56125;52.242;4.756;2023-01-29T11:34:31;7.32;;;3.92;;
69053;SDS011;56125;52.242;4.756;2023-01-29T11:39:32;5.23;;;3.40;;
69053;SDS011;56125;52.242;4.756;2023-01-29T11:44:34;6.53;;;3.53;;
69053;SDS011;56125;52.242;4.756;2023-01-29T11:49:39;4.63;;;3.27;;
69053;SDS011;56125;52.242;4.756;2023-01-29T11:55:01;4.40;;;3.33;;
69053;SDS011;56125;52.242;4.756;2023-01-29T12:00:25;6.83;;;3.50;;
69053;SDS011;56125;52.242;4.756;2023-01-29T12:05:28;5.22;;;3.40;;
69053;SDS011;56125;52.242;4.756;2023-01-29T12:15:38;6.68;;;3.90;;
69053;SDS011;56125;52.242;4.756;2023-01-29T12:20:45;5.20;;;3.37;;
69053;SDS011;56125;52.242;4.756;2023-01-29T12:25:55;4.53;;;3.22;;
69053;SDS011;56125;52.242;4.756;2023-01-29T12:31:05;6.67;;;3.77;;
69053;SDS011;56125;52.242;4.756;2023-01-29T12:36:30;6.18;;;3.50;;
69053;SDS011;56125;52.242;4.756;2023-01-29T12:41:41;6.63;;;3.60;;
69053;SDS011;56125;52.242;4.756;2023-01-29T12:46:59;5.43;;;3.55;;
69053;SDS011;56125;52.242;4.756;2023-01-29T12:57:08;6.35;;;4.10;;
69053;SDS011;56125;52.242;4.756;2023-01-29T13:07:22;6.35;;;4.18;;
69053;SDS011;56125;52.242;4.756;2023-01-29T13:12:27;6.07;;;4.47;;
69053;SDS011;56125;52.242;4.756;2023-01-29T13:17:38;5.35;;;3.47;;
69053;SDS011;56125;52.242;4.756;2023-01-29T13:22:43;6.10;;;3.93;;
69053;SDS011;56125;52.242;4.756;2023-01-29T13:27:46;7.55;;;3.92;;
69053;SDS011;56125;52.242;4.756;2023-01-29T13:32:49;6.73;;;3.80;;
69053;SDS011;56125;52.242;4.756;2023-01-29T13:37:54;16.42;;;4.13;;
69053;SDS011;56125;52.242;4.756;2023-01-29T13:42:55;6.70;;;3.88;;
69053;SDS011;56125;52.242;4.756;2023-01-29T13:48:07;5.82;;;3.70;;
69053;SDS011;56125;52.242;4.756;2023-01-29T13:53:16;6.82;;;3.80;;
69053;SDS011;56125;52.242;4.756;2023-01-29T14:03:32;6.28;;;3.67;;
69053;SDS011;56125;52.242;4.756;2023-01-29T14:08:44;5.55;;;3.60;;
69053;SDS011;56125;52.242;4.756;2023-01-29T14:13:47;5.35;;;3.65;;
69053;SDS011;56125;52.242;4.756;2023-01-29T14:18:56;5.28;;;3.70;;
69053;SDS011;56125;52.242;4.756;2023-01-29T14:24:15;5.82;;;3.63;;
69053;SDS011;56125;52.242;4.756;2023-01-29T14:29:25;3.88;;;3.40;;
69053;SDS011;56125;52.242;4.756;2023-01-29T14:34:34;6.43;;;3.47;;
69053;SDS011;56125;52.242;4.756;2023-01-29T14:39:48;4.07;;;3.30;;
69053;SDS011;56125;52.242;4.756;2023-01-29T14:49:55;4.97;;;3.45;;
69053;SDS011;56125;52.242;4.756;2023-01-29T14:54:58;6.90;;;3.60;;
69053;SDS011;56125;52.242;4.756;2023-01-29T15:00:05;5.45;;;3.42;;
69053;SDS011;56125;52.242;4.756;2023-01-29T15:05:35;4.72;;;3.53;;
69053;SDS011;56125;52.242;4.756;2023-01-29T15:15:51;6.05;;;3.40;;
69053;SDS011;56125;52.242;4.756;2023-01-29T15:21:03;5.63;;;3.50;;
69053;SDS011;56125;52.242;4.756;2023-01-29T15:26:18;4.32;;;3.25;;
69053;SDS011;56125;52.242;4.756;2023-01-29T15:31:21;4.78;;;3.00;;
69053;SDS011;56125;52.242;4.756;2023-01-29T15:36:23;5.20;;;3.10;;
69053;SDS011;56125;52.242;4.756;2023-01-29T15:41:30;6.50;;;3.47;;
69053;SDS011;56125;52.242;4.756;2023-01-29T15:46:32;3.72;;;2.90;;
69053;SDS011;56125;52.242;4.756;2023-01-29T15:51:36;4.47;;;3.00;;
69053;SDS011;56125;52.242;4.756;2023-01-29T15:56:49;6.25;;;2.80;;
69053;SDS011;56125;52.242;4.756;2023-01-29T16:01:52;3.80;;;2.90;;
69053;SDS011;56125;52.242;4.756;2023-01-29T16:06:53;4.88;;;3.10;;
69053;SDS011;56125;52.242;4.756;2023-01-29T16:11:56;5.00;;;3.00;;
69053;SDS011;56125;52.242;4.756;2023-01-29T16:17:09;3.30;;;2.53;;
69053;SDS011;56125;52.242;4.756;2023-01-29T16:22:20;6.35;;;2.92;;
69053;SDS011;56125;52.242;4.756;2023-01-29T16:27:21;4.47;;;3.03;;
69053;SDS011;56125;52.242;4.756;2023-01-29T16:32:24;6.45;;;3.45;;
69053;SDS011;56125;52.242;4.756;2023-01-29T16:37:27;4.97;;;3.08;;
69053;SDS011;56125;52.242;4.756;2023-01-29T16:42:30;4.43;;;2.40;;
69053;SDS011;56125;52.242;4.756;2023-01-29T16:47:32;4.30;;;2.50;;
69053;SDS011;56125;52.242;4.756;2023-01-29T16:52:35;3.30;;;2.33;;
69053;SDS011;56125;52.242;4.756;2023-01-29T16:57:36;4.22;;;2.30;;
69053;SDS011;56125;52.242;4.756;2023-01-29T17:02:39;3.55;;;2.28;;
69053;SDS011;56125;52.242;4.756;2023-01-29T17:07:41;4.32;;;2.42;;
69053;SDS011;56125;52.242;4.756;2023-01-29T17:12:58;4.38;;;2.67;;
69053;SDS011;56125;52.242;4.756;2023-01-29T17:18:07;4.72;;;3.15;;
69053;SDS011;56125;52.242;4.756;2023-01-29T17:23:17;5.40;;;3.20;;
69053;SDS011;56125;52.242;4.756;2023-01-29T17:28:18;5.63;;;3.03;;
69053;SDS011;56125;52.242;4.756;2023-01-29T17:33:19;4.75;;;3.05;;
69053;SDS011;56125;52.242;4.756;2023-01-29T17:38:25;5.15;;;2.70;;
69053;SDS011;56125;52.242;4.756;2023-01-29T17:43:26;4.88;;;3.10;;
69053;SDS011;56125;52.242;4.756;2023-01-29T17:48:28;3.40;;;2.60;;
69053;SDS011;56125;52.242;4.756;2023-01-29T17:53:29;6.10;;;3.60;;
69053;SDS011;56125;52.242;4.756;2023-01-29T17:58:30;4.30;;;3.03;;
69053;SDS011;56125;52.242;4.756;2023-01-29T18:03:31;4.78;;;3.13;;
69053;SDS011;56125;52.242;4.756;2023-01-29T18:08:33;4.18;;;2.95;;
69053;SDS011;56125;52.242;4.756;2023-01-29T18:13:36;3.58;;;2.78;;
69053;SDS011;56125;52.242;4.756;2023-01-29T18:18:37;4.97;;;2.88;;
69053;SDS011;56125;52.242;4.756;2023-01-29T18:23:38;3.88;;;2.70;;
69053;SDS011;56125;52.242;4.756;2023-01-29T18:28:39;4.28;;;2.60;;
69053;SDS011;56125;52.242;4.756;2023-01-29T18:33:42;4.63;;;2.97;;
69053;SDS011;56125;52.242;4.756;2023-01-29T18:38:43;5.93;;;3.30;;
69053;SDS011;56125;52.242;4.756;2023-01-29T18:43:44;4.67;;;2.83;;
69053;SDS011;56125;52.242;4.756;2023-01-29T18:48:46;5.80;;;3.22;;
69053;SDS011;56125;52.242;4.756;2023-01-29T18:53:50;5.10;;;2.67;;
69053;SDS011;56125;52.242;4.756;2023-01-29T18:58:54;4.32;;;2.90;;
69053;SDS011;56125;52.242;4.756;2023-01-29T19:03:55;4.07;;;3.00;;
69053;SDS011;56125;52.242;4.756;2023-01-29T19:08:59;4.60;;;2.70;;
69053;SDS011;56125;52.242;4.756;2023-01-29T19:14:02;4.87;;;2.80;;
69053;SDS011;56125;52.242;4.756;2023-01-29T19:19:03;4.35;;;2.80;;
69053;SDS011;56125;52.242;4.756;2023-01-29T19:24:04;4.10;;;3.07;;
69053;SDS011;56125;52.242;4.756;2023-01-29T19:29:05;4.45;;;2.83;;
69053;SDS011;56125;52.242;4.756;2023-01-29T19:34:06;4.13;;;2.70;;
69053;SDS011;56125;52.242;4.756;2023-01-29T19:39:17;4.97;;;2.90;;
69053;SDS011;56125;52.242;4.756;2023-01-29T19:44:18;7.30;;;2.87;;
69053;SDS011;56125;52.242;4.756;2023-01-29T19:49:19;4.28;;;3.08;;
69053;SDS011;56125;52.242;4.756;2023-01-29T19:54:20;4.30;;;2.90;;
69053;SDS011;56125;52.242;4.756;2023-01-29T19:59:21;4.40;;;2.65;;
69053;SDS011;56125;52.242;4.756;2023-01-29T20:04:22;3.87;;;2.97;;
69053;SDS011;56125;52.242;4.756;2023-01-29T20:09:24;3.30;;;2.65;;
69053;SDS011;56125;52.242;4.756;2023-01-29T20:14:28;3.57;;;2.77;;
69053;SDS011;56125;52.242;4.756;2023-01-29T20:19:29;3.67;;;2.53;;
69053;SDS011;56125;52.242;4.756;2023-01-29T20:24:30;4.27;;;2.80;;
69053;SDS011;56125;52.242;4.756;2023-01-29T20:29:33;4.00;;;3.03;;
69053;SDS011;56125;52.242;4.756;2023-01-29T20:34:34;3.57;;;2.47;;
69053;SDS011;56125;52.242;4.756;2023-01-29T20:39:35;4.18;;;2.65;;
69053;SDS011;56125;52.242;4.756;2023-01-29T20:44:37;5.27;;;2.60;;
69053;SDS011;56125;52.242;4.756;2023-01-29T20:49:38;4.93;;;2.55;;
69053;SDS011;56125;52.242;4.756;2023-01-29T20:54:39;3.53;;;2.47;;
69053;SDS011;56125;52.242;4.756;2023-01-29T20:59:40;3.67;;;2.60;;
69053;SDS011;56125;52.242;4.756;2023-01-29T21:04:41;4.20;;;2.30;;
69053;SDS011;56125;52.242;4.756;2023-01-29T21:09:42;4.45;;;2.72;;
69053;SDS011;56125;52.242;4.756;2023-01-29T21:14:43;4.57;;;2.43;;
69053;SDS011;56125;52.242;4.756;2023-01-29T21:19:45;5.88;;;2.80;;
69053;SDS011;56125;52.242;4.756;2023-01-29T21:24:46;4.10;;;2.60;;
69053;SDS011;56125;52.242;4.756;2023-01-29T21:29:47;2.70;;;1.90;;
69053;SDS011;56125;52.242;4.756;2023-01-29T21:34:48;5.37;;;2.40;;
69053;SDS011;56125;52.242;4.756;2023-01-29T21:39:49;5.20;;;2.25;;
69053;SDS011;56125;52.242;4.756;2023-01-29T21:44:50;2.73;;;1.63;;
69053;SDS011;56125;52.242;4.756;2023-01-29T21:49:51;1.73;;;1.45;;
69053;SDS011;56125;52.242;4.756;2023-01-29T21:54:52;3.37;;;1.70;;
69053;SDS011;56125;52.242;4.756;2023-01-29T21:59:53;2.53;;;1.48;;
69053;SDS011;56125;52.242;4.756;2023-01-29T22:04:54;3.47;;;1.80;;
69053;SDS011;56125;52.242;4.756;2023-01-29T22:09:57;3.13;;;1.45;;
69053;SDS011;56125;52.242;4.756;2023-01-29T22:14:59;4.67;;;1.77;;
69053;SDS011;56125;52.242;4.756;2023-01-29T22:20:00;3.97;;;1.60;;
69053;SDS011;56125;52.242;4.756;2023-01-29T22:25:01;3.03;;;1.90;;
69053;SDS011;56125;52.242;4.756;2023-01-29T22:30:03;3.58;;;1.70;;
69053;SDS011;56125;52.242;4.756;2023-01-29T22:35:05;3.87;;;1.40;;
69053;SDS011;56125;52.242;4.756;2023-01-29T22:40:06;2.20;;;1.40;;
69053;SDS011;56125;52.242;4.756;2023-01-29T22:45:08;2.63;;;1.70;;
69053;SDS011;56125;52.242;4.756;2023-01-29T22:50:09;2.47;;;1.60;;
69053;SDS011;56125;52.242;4.756;2023-01-29T22:55:11;3.30;;;1.07;;
69053;SDS011;56125;52.242;4.756;2023-01-29T23:00:13;1.90;;;1.27;;
69053;SDS011;56125;52.242;4.756;2023-01-29T23:05:14;2.03;;;1.33;;
69053;SDS011;56125;52.242;4.756;2023-01-29T23:10:16;2.42;;;1.45;;
69053;SDS011;56125;52.242;4.756;2023-01-29T23:15:17;2.03;;;1.30;;
69053;SDS011;56125;52.242;4.756;2023-01-29T23:20:18;2.28;;;1.00;;
69053;SDS011;56125;52.242;4.756;2023-01-29T23:25:21;3.37;;;1.40;;
69053;SDS011;56125;52.242;4.756;2023-01-29T23:30:22;2.78;;;1.30;;
69053;SDS011;56125;52.242;4.756;2023-01-29T23:35:23;3.77;;;1.50;;
69053;SDS011;56125;52.242;4.756;2023-01-29T23:40:24;2.40;;;1.48;;
69053;SDS011;56125;52.242;4.756;2023-01-29T23:45:25;3.60;;;1.20;;
69053;SDS011;56125;52.242;4.756;2023-01-29T23:50:26;3.45;;;1.40;;
69053;SDS011;56125;52.242;4.756;2023-01-29T23:55:27;4.87;;;1.40;;
